Time;durP1;ratioP1;P1;durP2;ratioP2;P2;SDS_P1;SDS_P2;PMS_P1;PMS_P2;Temp;Humidity;BMP_temperature;BMP_pressure;BME280_temperature;BME280_humidity;BME280_pressure;Samples;Min_cycle;Max_cycle;Signal;HPM_P1;HPM_P2
2023/08/14 00:00:57;;;;;;;0.05;0.05;;;;;;;25.61;56.38;101641.75;5050817;28;20052;-67
2023/08/14 00:03:23;;;;;;;0.00;0.00;;;;;;;25.12;58.11;101644.31;5048056;28;20033;-67
2023/08/14 00:05:48;;;;;;;0.00;0.00;;;;;;;25.20;57.77;101649.94;5044837;28;20068;-67
2023/08/14 00:08:13;;;;;;;0.10;0.10;;;;;;;25.07;58.31;101653.50;5041678;28;20043;-68
2023/08/14 00:10:39;;;;;;;0.00;0.00;;;;;;;25.15;57.76;101646.47;5041832;28;20021;-67
2023/08/14 00:13:04;;;;;;;0.00;0.00;;;;;;;25.09;58.48;101651.25;5041559;28;20041;-66
2023/08/14 00:15:30;;;;;;;0.10;0.10;;;;;;;25.27;57.84;101647.63;5039471;28;20041;-67
2023/08/14 00:17:55;;;;;;;0.00;0.00;;;;;;;25.29;58.16;101650.06;5041324;28;20037;-68
2023/08/14 00:20:21;;;;;;;0.03;0.03;;;;;;;25.38;57.73;101639.97;5055333;28;20043;-66
2023/08/14 00:22:46;;;;;;;0.00;0.00;;;;;;;25.39;57.63;101655.41;5040521;28;20025;-69
2023/08/14 00:25:11;;;;;;;0.03;0.03;;;;;;;25.16;58.16;101650.84;5023569;28;20041;-67
2023/08/14 00:27:37;;;;;;;0.00;0.00;;;;;;;25.08;57.83;101649.63;5039846;28;20049;-68
2023/08/14 00:30:03;;;;;;;0.10;0.10;;;;;;;25.03;57.95;101638.72;5040419;28;20037;-68
2023/08/14 00:32:28;;;;;;;0.10;0.10;;;;;;;24.84;58.31;101640.72;5041323;28;20108;-67
2023/08/14 00:34:54;;;;;;;0.00;0.00;;;;;;;24.63;59.80;101644.06;5039530;28;20046;-67
2023/08/14 00:37:21;;;;;;;0.03;0.03;;;;;;;24.63;59.98;101644.06;5041053;28;20836;-66
2023/08/14 00:39:47;;;;;;;0.00;0.00;;;;;;;24.71;59.48;101635.94;5041604;28;20091;-67
2023/08/14 00:42:12;;;;;;;0.00;0.00;;;;;;;24.89;58.74;101642.53;5039637;28;20030;-68
2023/08/14 00:44:37;;;;;;;0.00;0.00;;;;;;;24.69;59.28;101634.59;5042864;28;20033;-69
2023/08/14 00:47:03;;;;;;;0.00;0.00;;;;;;;24.90;58.52;101624.94;5040055;28;20021;-67
2023/08/14 00:49:28;;;;;;;0.10;0.10;;;;;;;25.01;58.13;101626.38;5041260;28;20017;-68
2023/08/14 00:51:54;;;;;;;0.00;0.00;;;;;;;25.07;58.19;101625.16;5039223;28;20049;-67
2023/08/14 00:54:19;;;;;;;0.03;0.03;;;;;;;24.84;59.58;101615.13;5040345;28;20496;-67
2023/08/14 00:56:45;;;;;;;0.00;0.00;;;;;;;25.02;59.32;101620.56;5053617;28;20140;-67
2023/08/14 00:59:11;;;;;;;0.00;0.00;;;;;;;25.16;58.02;101617.84;5040956;28;20124;-67
2023/08/14 01:01:37;;;;;;;0.10;0.10;;;;;;;24.94;59.22;101621.25;5040094;28;20029;-66
2023/08/14 01:04:02;;;;;;;0.10;0.10;;;;;;;24.72;61.15;101617.50;5041591;28;20060;-67
2023/08/14 01:06:28;;;;;;;0.10;0.10;;;;;;;24.70;61.21;101612.31;5038693;28;20120;-67
2023/08/14 01:08:53;;;;;;;0.00;0.00;;;;;;;24.63;61.45;101619.31;5040946;28;20110;-67
2023/08/14 01:11:45;;;;;;;0.00;0.00;;;;;;;24.66;61.52;101615.97;5042216;28;20091;-67
2023/08/14 01:14:23;;;;;;;0.10;0.10;;;;;;;24.78;61.08;101613.59;5040732;28;20522;-66
2023/08/14 01:16:55;;;;;;;0.10;0.10;;;;;;;24.83;60.55;101621.75;5039320;28;20388;-67
2023/08/14 01:19:24;;;;;;;0.10;0.10;;;;;;;24.80;60.38;101608.59;5039729;28;20315;-67
2023/08/14 01:21:52;;;;;;;0.10;0.10;;;;;;;24.59;61.38;101621.84;5052008;28;20036;-67
2023/08/14 01:24:30;;;;;;;0.10;0.10;;;;;;;24.56;61.34;101622.44;5040578;28;20083;-67
2023/08/14 01:26:56;;;;;;;0.08;0.08;;;;;;;24.31;62.60;101620.88;5038598;28;20033;-66
2023/08/14 01:29:21;;;;;;;0.10;0.10;;;;;;;24.45;61.86;101610.00;5058375;28;20031;-68
2023/08/14 01:31:47;;;;;;;0.10;0.10;;;;;;;24.52;60.24;101613.16;5057215;28;20025;-66
2023/08/14 01:34:13;;;;;;;0.10;0.10;;;;;;;24.71;60.60;101619.44;5065814;28;20415;-67
2023/08/14 01:36:50;;;;;;;0.10;0.10;;;;;;;24.66;60.35;101610.47;5052896;28;20113;-68
2023/08/14 01:39:19;;;;;;;0.10;0.10;;;;;;;24.74;59.95;101610.63;5069443;28;20041;-67
2023/08/14 01:42:20;;;;;;;0.10;0.10;;;;;;;24.23;63.20;101621.59;5057634;28;20043;-68
2023/08/14 01:44:50;;;;;;;0.10;0.10;;;;;;;24.16;62.53;101618.38;5000888;28;20038;-67
2023/08/14 01:47:16;;;;;;;0.10;0.10;;;;;;;24.10;63.04;101611.31;4992262;28;20474;-68
2023/08/14 01:49:43;;;;;;;0.10;0.10;;;;;;;24.43;60.59;101620.47;4999023;28;20080;-67
2023/08/14 01:52:09;;;;;;;0.10;0.10;;;;;;;24.57;60.98;101613.06;4991628;28;20138;-68
2023/08/14 01:54:35;;;;;;;0.05;0.05;;;;;;;24.51;60.30;101606.00;5003296;28;20156;-68
2023/08/14 01:57:01;;;;;;;0.00;0.00;;;;;;;24.45;60.64;101611.91;4986924;28;20038;-67
2023/08/14 01:59:40;;;;;;;0.00;0.00;;;;;;;24.45;60.12;101600.91;4996049;28;20116;-68
2023/08/14 02:02:05;;;;;;;0.10;0.10;;;;;;;24.55;60.08;101596.06;4992178;28;20057;-67
2023/08/14 02:04:30;;;;;;;0.10;0.10;;;;;;;24.46;59.82;101597.03;4995299;28;20034;-67
2023/08/14 02:06:56;;;;;;;0.10;0.10;;;;;;;24.30;60.64;101586.31;5003212;28;20034;-68
2023/08/14 02:09:21;;;;;;;0.10;0.10;;;;;;;24.37;60.65;101594.97;4985342;28;20094;-68
2023/08/14 02:11:47;;;;;;;0.10;0.10;;;;;;;24.27;61.30;101588.84;4975367;28;20093;-67
2023/08/14 02:14:12;;;;;;;0.10;0.10;;;;;;;23.99;62.31;101585.09;4987264;28;20039;-66
2023/08/14 02:16:37;;;;;;;0.00;0.00;;;;;;;23.97;62.49;101583.75;4987844;28;20026;-67
2023/08/14 02:19:03;;;;;;;0.00;0.00;;;;;;;24.02;61.53;101586.44;4970730;28;20045;-67
2023/08/14 02:21:28;;;;;;;0.00;0.00;;;;;;;24.26;61.19;101585.25;5013485;28;20084;-67
2023/08/14 02:23:54;;;;;;;0.00;0.00;;;;;;;24.10;60.76;101583.03;5048771;28;20033;-66
2023/08/14 02:26:19;;;;;;;0.00;0.00;;;;;;;24.25;61.28;101588.31;5045186;28;20033;-67
2023/08/14 02:28:44;;;;;;;0.10;0.10;;;;;;;24.32;61.27;101589.56;5045826;28;20026;-66
2023/08/14 02:31:10;;;;;;;0.10;0.10;;;;;;;23.93;63.04;101578.03;5048367;28;20036;-66
2023/08/14 02:33:35;;;;;;;0.10;0.10;;;;;;;23.93;62.99;101571.72;5026562;28;20036;-68
2023/08/14 02:36:01;;;;;;;0.10;0.10;;;;;;;24.24;61.34;101572.94;5048629;28;20331;-66
2023/08/14 02:38:26;;;;;;;0.00;0.00;;;;;;;24.46;60.96;101575.06;5045060;28;20088;-69
2023/08/14 02:40:51;;;;;;;0.05;0.05;;;;;;;24.41;60.94;101573.22;5045617;28;20022;-67
2023/08/14 02:43:17;;;;;;;0.10;0.10;;;;;;;24.31;61.41;101568.69;5048479;28;20029;-67
2023/08/14 02:45:42;;;;;;;0.03;0.03;;;;;;;24.33;60.68;101562.91;5048021;28;20032;-67
2023/08/14 02:48:08;;;;;;;0.00;0.00;;;;;;;24.04;61.58;101560.31;5048420;28;20047;-67
2023/08/14 02:50:33;;;;;;;0.10;0.10;;;;;;;23.69;62.62;101562.72;5045051;28;20038;-66
2023/08/14 02:52:58;;;;;;;0.00;0.00;;;;;;;23.69;62.35;101558.06;5045153;28;20449;-67
2023/08/14 02:55:25;;;;;;;0.10;0.10;;;;;;;23.73;62.16;101556.34;5048711;28;20090;-67
2023/08/14 02:57:51;;;;;;;0.10;0.10;;;;;;;23.67;61.99;101562.19;5044989;28;20035;-67
2023/08/14 03:00:16;;;;;;;0.10;0.10;;;;;;;23.59;61.72;101563.66;5048182;28;20032;-67
2023/08/14 03:02:41;;;;;;;0.10;0.10;;;;;;;23.52;62.24;101561.31;5044826;28;20444;-67
2023/08/14 03:05:07;;;;;;;0.00;0.00;;;;;;;23.46;62.17;101562.47;5039462;28;20049;-67
2023/08/14 03:07:32;;;;;;;0.10;0.10;;;;;;;23.50;62.22;101559.97;5030639;28;20255;-66
2023/08/14 03:09:58;;;;;;;0.10;0.10;;;;;;;23.43;62.25;101552.06;5045015;28;20036;-67
2023/08/14 03:12:23;;;;;;;0.10;0.10;;;;;;;23.29;62.42;101555.81;5047839;28;20036;-68
2023/08/14 03:14:48;;;;;;;0.10;0.10;;;;;;;23.17;63.29;101563.63;5047972;28;20033;-67
2023/08/14 03:17:14;;;;;;;0.03;0.03;;;;;;;23.21;62.81;101559.19;5048035;28;20032;-66
2023/08/14 03:19:40;;;;;;;0.10;0.10;;;;;;;23.28;62.90;101563.22;5045337;28;20025;-67
2023/08/14 03:22:05;;;;;;;0.10;0.10;;;;;;;23.18;63.03;101562.50;5047929;28;20044;-67
2023/08/14 03:24:30;;;;;;;0.10;0.10;;;;;;;23.18;63.00;101568.81;5044753;28;20500;-66
2023/08/14 03:26:56;;;;;;;0.10;0.10;;;;;;;23.26;63.01;101570.09;5044783;28;20107;-67
2023/08/14 03:29:21;;;;;;;0.10;0.10;;;;;;;23.18;63.43;101566.06;5048188;28;20467;-68
2023/08/14 03:31:47;;;;;;;0.00;0.00;;;;;;;23.18;63.36;101573.47;5045192;28;20029;-67
2023/08/14 03:34:12;;;;;;;0.10;0.10;;;;;;;23.17;62.71;101572.69;5048438;28;20021;-67
2023/08/14 03:36:37;;;;;;;0.10;0.10;;;;;;;23.36;62.42;101564.53;5044655;28;20040;-68
2023/08/14 03:39:03;;;;;;;0.10;0.10;;;;;;;23.23;63.00;101568.72;5045050;28;20025;-66
2023/08/14 03:41:28;;;;;;;0.10;0.10;;;;;;;23.06;63.88;101578.53;5044720;28;20029;-68
2023/08/14 03:43:54;;;;;;;0.00;0.00;;;;;;;23.24;62.90;101580.53;5042743;28;20034;-67
2023/08/14 03:46:19;;;;;;;0.10;0.10;;;;;;;23.30;62.44;101580.19;5051937;28;20477;-67
2023/08/14 03:48:45;;;;;;;0.08;0.08;;;;;;;23.47;62.14;101579.72;5048327;28;20060;-67
2023/08/14 03:51:10;;;;;;;0.00;0.00;;;;;;;23.41;62.15;101578.97;5051616;28;20040;-68
2023/08/14 03:53:35;;;;;;;0.10;0.10;;;;;;;23.42;62.42;101577.88;5047958;28;20041;-67
2023/08/14 03:56:01;;;;;;;0.10;0.10;;;;;;;23.42;62.59;101583.38;5051528;28;20025;-67
2023/08/14 03:58:26;;;;;;;0.00;0.00;;;;;;;23.43;62.74;101576.75;5048576;28;20032;-67
2023/08/14 04:00:52;;;;;;;0.10;0.10;;;;;;;23.70;61.73;101567.94;5045698;28;20045;-66
2023/08/14 04:03:18;;;;;;;0.03;0.03;;;;;;;23.87;60.60;101570.97;5048544;28;20037;-66
2023/08/14 04:05:43;;;;;;;0.10;0.10;;;;;;;23.97;60.42;101567.28;5046802;28;20029;-67
2023/08/14 04:08:09;;;;;;;0.10;0.10;;;;;;;23.83;61.10;101561.72;5044433;28;20485;-67
2023/08/14 04:10:34;;;;;;;0.10;0.10;;;;;;;23.96;60.70;101574.69;5043605;28;20021;-67
2023/08/14 04:13:00;;;;;;;0.10;0.10;;;;;;;23.81;60.70;101585.06;5040968;28;20056;-67
2023/08/14 04:15:26;;;;;;;0.10;0.10;;;;;;;23.89;60.45;101582.50;5051835;28;20447;-66
2023/08/14 04:17:51;;;;;;;0.10;0.10;;;;;;;23.97;59.97;101573.59;5050049;28;20052;-67
2023/08/14 04:20:17;;;;;;;0.10;0.10;;;;;;;24.00;59.86;101578.47;5050682;28;20511;-67
2023/08/14 04:22:43;;;;;;;0.10;0.10;;;;;;;23.92;59.83;101572.84;5051192;28;20017;-66
2023/08/14 04:25:08;;;;;;;0.10;0.10;;;;;;;23.97;59.73;101570.84;5047315;28;20524;-66
2023/08/14 04:27:36;;;;;;;0.10;0.10;;;;;;;23.77;60.34;101573.88;5050553;28;20605;-67
2023/08/14 04:30:02;;;;;;;0.00;0.00;;;;;;;23.87;60.19;101576.47;5047499;28;20315;-66
2023/08/14 04:32:28;;;;;;;0.10;0.10;;;;;;;23.82;60.68;101575.72;5049432;28;20558;-69
2023/08/14 04:34:53;;;;;;;0.10;0.10;;;;;;;23.79;60.95;101566.16;5048308;28;20037;-66
2023/08/14 04:37:19;;;;;;;0.20;0.20;;;;;;;23.98;59.94;101566.19;5050797;28;20024;-67
2023/08/14 04:39:44;;;;;;;0.10;0.10;;;;;;;24.06;59.64;101571.84;5047228;28;20041;-66
2023/08/14 04:42:09;;;;;;;0.10;0.10;;;;;;;24.16;59.12;101574.44;5050448;28;20022;-67
2023/08/14 04:44:35;;;;;;;0.10;0.10;;;;;;;24.23;59.13;101563.06;5051706;28;20470;-66
2023/08/14 04:47:00;;;;;;;0.10;0.10;;;;;;;24.23;59.08;101549.34;5047245;28;20029;-67
2023/08/14 04:49:25;;;;;;;0.10;0.10;;;;;;;23.81;60.94;101552.94;5047393;28;20468;-66
2023/08/14 04:51:51;;;;;;;0.20;0.20;;;;;;;23.92;61.04;101550.88;5046898;28;20029;-67
2023/08/14 04:54:16;;;;;;;0.00;0.00;;;;;;;23.99;60.80;101548.56;5046803;28;20032;-66
2023/08/14 04:56:42;;;;;;;0.10;0.10;;;;;;;23.57;62.41;101556.88;5051353;28;20040;-68
2023/08/14 04:59:07;;;;;;;0.10;0.10;;;;;;;23.85;61.87;101555.91;5050000;28;20504;-66
2023/08/14 05:01:32;;;;;;;0.10;0.10;;;;;;;23.97;61.72;101550.81;5047786;28;20262;-67
2023/08/14 05:03:58;;;;;;;0.08;0.08;;;;;;;24.06;61.48;101547.13;5049695;28;20116;-66
2023/08/14 05:06:23;;;;;;;0.10;0.10;;;;;;;24.14;61.19;101549.19;5049855;28;20577;-66
2023/08/14 05:08:48;;;;;;;0.08;0.08;;;;;;;24.12;61.37;101539.59;5046494;28;20025;-66
2023/08/14 05:11:14;;;;;;;0.10;0.10;;;;;;;23.97;61.69;101529.66;5032042;28;20628;-67
2023/08/14 05:13:44;;;;;;;0.10;0.10;;;;;;;23.78;63.16;101537.09;5032336;28;20036;-66
2023/08/14 05:16:09;;;;;;;0.10;0.10;;;;;;;23.87;62.90;101535.28;5033177;28;20067;-67
2023/08/14 05:18:35;;;;;;;0.10;0.10;;;;;;;24.27;61.93;101547.63;5046260;28;20034;-68
2023/08/14 05:21:00;;;;;;;0.10;0.10;;;;;;;24.17;61.82;101551.34;5059819;28;20471;-66
2023/08/14 05:23:26;;;;;;;0.00;0.00;;;;;;;24.30;62.24;101553.34;5038166;28;20163;-68
2023/08/14 05:25:51;;;;;;;0.10;0.10;;;;;;;24.43;61.48;101554.50;5050808;28;20381;-67
2023/08/14 05:28:16;;;;;;;0.10;0.10;;;;;;;24.56;61.15;101559.22;5047562;28;20052;-67
2023/08/14 05:30:44;;;;;;;0.10;0.10;;;;;;;24.73;60.58;101556.75;5054975;28;20106;-68
2023/08/14 05:33:09;;;;;;;0.10;0.10;;;;;;;24.76;60.86;101552.59;5060056;28;20033;-68
2023/08/14 05:35:35;;;;;;;0.10;0.10;;;;;;;24.76;60.87;101558.09;5058912;28;20063;-68
2023/08/14 05:38:02;;;;;;;0.00;0.00;;;;;;;24.66;61.36;101563.72;5058245;28;20021;-68
2023/08/14 05:40:27;;;;;;;0.10;0.10;;;;;;;24.50;61.33;101554.09;5058331;28;20033;-69
2023/08/14 05:43:09;;;;;;;0.10;0.10;;;;;;;24.83;61.28;101553.00;5060340;28;20025;-67
2023/08/14 05:45:41;;;;;;;0.00;0.00;;;;;;;25.05;60.66;101556.72;5039074;28;20586;-67
2023/08/14 05:48:07;;;;;;;0.00;0.00;;;;;;;25.03;60.48;101555.38;5038665;28;20070;-67
2023/08/14 05:50:33;;;;;;;0.00;0.00;;;;;;;24.25;63.69;101552.59;5049107;28;20071;-67
2023/08/14 05:53:05;;;;;;;0.05;0.05;;;;;;;24.16;64.74;101546.97;5055670;28;20091;-66
2023/08/14 05:55:32;;;;;;;0.10;0.10;;;;;;;24.46;64.03;101553.06;5056955;28;20027;-67
2023/08/14 05:57:58;;;;;;;0.00;0.00;;;;;;;24.60;63.72;101553.94;5056726;28;20067;-68
2023/08/14 06:00:27;;;;;;;0.10;0.10;;;;;;;24.52;63.68;101552.69;5054677;28;20053;-68
2023/08/14 06:02:53;;;;;;;0.10;0.10;;;;;;;24.84;62.78;101560.16;5047777;28;20472;-69
2023/08/14 06:05:18;;;;;;;0.10;0.10;;;;;;;24.86;62.98;101558.72;5048502;28;20047;-68
2023/08/14 06:07:44;;;;;;;0.00;0.00;;;;;;;24.66;63.66;101563.72;5048981;28;20504;-68
2023/08/14 06:10:10;;;;;;;0.00;0.00;;;;;;;24.76;63.43;101555.34;5026947;28;20501;-69
2023/08/14 06:12:35;;;;;;;0.00;0.00;;;;;;;24.96;62.79;101560.47;5048594;28;20040;-68
2023/08/14 06:15:01;;;;;;;0.00;0.00;;;;;;;25.38;61.20;101562.09;5048767;28;20104;-69
2023/08/14 06:17:27;;;;;;;0.00;0.00;;;;;;;25.39;60.60;101572.00;5045396;28;20041;-68
2023/08/14 06:19:52;;;;;;;0.00;0.00;;;;;;;25.45;61.03;101560.63;5048395;28;20021;-69
2023/08/14 06:22:19;;;;;;;0.05;0.05;;;;;;;25.37;60.90;101555.81;5049111;28;20028;-69
2023/08/14 06:24:44;;;;;;;0.00;0.00;;;;;;;25.64;59.95;101558.56;5028861;28;20028;-68
2023/08/14 06:27:10;;;;;;;0.00;0.00;;;;;;;25.52;60.15;101560.19;5044585;28;20419;-69
2023/08/14 06:29:35;;;;;;;0.00;0.00;;;;;;;25.54;60.83;101558.78;5044016;28;20500;-68
2023/08/14 06:32:01;;;;;;;0.10;0.10;;;;;;;25.76;59.97;101558.03;5037529;28;20021;-68
2023/08/14 06:34:27;;;;;;;0.00;0.00;;;;;;;25.92;59.95;101562.91;5052174;28;20025;-68
2023/08/14 06:36:52;;;;;;;0.00;0.00;;;;;;;26.14;59.00;101567.66;5048493;28;20170;-67
2023/08/14 06:39:18;;;;;;;0.00;0.00;;;;;;;25.70;60.68;101571.09;5048404;28;20576;-68
2023/08/14 06:41:43;;;;;;;0.00;0.00;;;;;;;26.03;59.62;101568.97;5048614;28;20029;-68
2023/08/14 06:44:09;;;;;;;0.00;0.00;;;;;;;26.02;59.80;101565.41;5048453;28;20035;-69
2023/08/14 06:46:35;;;;;;;0.00;0.00;;;;;;;26.22;58.95;101577.91;5049270;28;20032;-69
2023/08/14 06:49:00;;;;;;;0.00;0.00;;;;;;;26.31;58.86;101578.00;5067510;28;20033;-67
2023/08/14 06:51:26;;;;;;;0.00;0.00;;;;;;;26.31;58.87;101578.00;5055459;28;20037;-68
2023/08/14 06:53:51;;;;;;;0.00;0.00;;;;;;;26.40;58.46;101587.13;5048412;28;20040;-68
2023/08/14 06:56:17;;;;;;;0.00;0.00;;;;;;;26.28;59.05;101586.91;5048484;28;20519;-67
2023/08/14 06:58:42;;;;;;;0.00;0.00;;;;;;;26.39;58.62;101589.09;5044192;28;20074;-68
2023/08/14 07:01:07;;;;;;;0.00;0.00;;;;;;;26.53;58.49;101589.03;5037622;28;20389;-69
2023/08/14 07:03:33;;;;;;;0.00;0.00;;;;;;;26.32;58.96;101593.41;5048145;28;20049;-69
2023/08/14 07:05:58;;;;;;;0.00;0.00;;;;;;;26.38;58.17;101592.16;5048009;28;20470;-69
2023/08/14 07:08:24;;;;;;;0.00;0.00;;;;;;;26.73;57.61;101594.88;5047561;28;20033;-70
2023/08/14 07:10:50;;;;;;;0.00;0.00;;;;;;;26.66;57.86;101591.72;5048022;28;20028;-68
2023/08/14 07:13:15;;;;;;;0.00;0.00;;;;;;;26.36;59.23;101594.44;5046670;28;20098;-68
2023/08/14 07:15:40;;;;;;;0.00;0.00;;;;;;;26.97;57.28;101593.72;5040963;28;20029;-67
2023/08/14 07:18:06;;;;;;;0.00;0.00;;;;;;;27.29;56.08;101594.19;5047054;28;20029;-68
2023/08/14 07:20:32;;;;;;;0.00;0.00;;;;;;;26.88;58.23;101596.44;5047252;28;20033;-70
2023/08/14 07:22:57;;;;;;;0.00;0.00;;;;;;;26.58;58.24;101589.72;5047631;28;20033;-68
2023/08/14 07:25:23;;;;;;;0.00;0.00;;;;;;;26.93;58.68;101586.06;5050101;28;20019;-66
2023/08/14 07:27:49;;;;;;;0.00;0.00;;;;;;;27.00;57.71;101593.91;5051919;28;20037;-68
2023/08/14 07:30:14;;;;;;;0.00;0.00;;;;;;;27.25;57.09;101582.16;5052185;28;20041;-68
2023/08/14 07:32:40;;;;;;;0.00;0.00;;;;;;;27.50;56.87;101583.41;5051927;28;20037;-68
2023/08/14 07:35:06;;;;;;;0.00;0.00;;;;;;;27.53;56.85;101582.78;5052867;28;20025;-67
2023/08/14 07:37:31;;;;;;;0.00;0.00;;;;;;;27.88;55.48;101578.13;5053263;28;20369;-69
2023/08/14 07:39:57;;;;;;;0.00;0.00;;;;;;;27.86;56.11;101574.88;5052006;28;20151;-69
2023/08/14 07:42:22;;;;;;;0.00;0.00;;;;;;;27.74;56.36;101570.81;5052001;28;20086;-69
2023/08/14 07:44:48;;;;;;;0.00;0.00;;;;;;;27.60;56.12;101575.66;5056558;28;20028;-68
2023/08/14 07:47:13;;;;;;;0.00;0.00;;;;;;;27.64;56.52;101571.09;5071925;28;20396;-68
2023/08/14 07:49:38;;;;;;;0.00;0.00;;;;;;;27.14;56.83;101582.75;5072484;28;20024;-69
2023/08/14 07:52:05;;;;;;;0.00;0.00;;;;;;;27.83;55.64;101572.78;5071524;28;20249;-67
2023/08/14 07:54:31;;;;;;;0.00;0.00;;;;;;;28.07;55.01;101570.41;5053815;28;20476;-69
2023/08/14 07:56:56;;;;;;;0.00;0.00;;;;;;;28.29;53.75;101576.56;5051498;28;20123;-66
2023/08/14 07:59:22;;;;;;;0.00;0.00;;;;;;;28.50;53.99;101577.50;5051591;28;20516;-67
2023/08/14 08:01:47;;;;;;;0.00;0.00;;;;;;;28.78;53.43;101580.75;5051706;28;20040;-67
2023/08/14 08:04:13;;;;;;;0.00;0.00;;;;;;;28.40;55.01;101582.59;5051869;28;20021;-70
2023/08/14 08:06:38;;;;;;;0.00;0.00;;;;;;;27.77;56.46;101583.97;5051454;28;20044;-68
2023/08/14 08:09:04;;;;;;;0.00;0.00;;;;;;;28.11;54.86;101585.97;5051276;28;20033;-72
2023/08/14 08:11:29;;;;;;;0.00;0.00;;;;;;;28.59;54.67;101585.84;5050993;28;20033;-69
2023/08/14 08:13:55;;;;;;;0.00;0.00;;;;;;;28.70;54.09;101578.81;5051158;28;20032;-69
2023/08/14 08:16:21;;;;;;;0.00;0.00;;;;;;;28.54;54.90;101588.72;5051790;28;20020;-68
2023/08/14 08:18:46;;;;;;;0.00;0.00;;;;;;;28.72;54.55;101572.97;5051087;28;20459;-70
2023/08/14 08:21:12;;;;;;;0.00;0.00;;;;;;;28.59;54.63;101577.53;5051037;28;20036;-69
2023/08/14 08:23:37;;;;;;;0.00;0.00;;;;;;;29.74;51.63;101567.00;5049576;28;20033;-68
2023/08/14 08:26:02;;;;;;;0.00;0.00;;;;;;;29.19;52.43;101566.31;5051334;28;20410;-67
2023/08/14 08:28:28;;;;;;;0.00;0.00;;;;;;;29.17;52.33;101561.09;5050546;28;20050;-68
2023/08/14 08:30:53;;;;;;;0.00;0.00;;;;;;;28.84;51.81;101571.13;5049974;28;20029;-68
2023/08/14 08:33:19;;;;;;;0.00;0.00;;;;;;;29.35;51.45;101565.41;5047098;28;20036;-68
2023/08/14 08:35:44;;;;;;;0.00;0.00;;;;;;;29.59;49.59;101577.84;5047053;28;20444;-68
2023/08/14 08:38:10;;;;;;;0.00;0.00;;;;;;;29.84;49.97;101571.34;5028385;28;20087;-69
2023/08/14 08:40:36;;;;;;;0.00;0.00;;;;;;;29.88;49.86;101569.50;5043427;28;20021;-68
2023/08/14 08:43:02;;;;;;;0.00;0.00;;;;;;;29.47;50.63;101575.78;5042970;28;20396;-69
2023/08/14 08:45:31;;;;;;;0.00;0.00;;;;;;;29.58;51.12;101568.72;5046677;28;20028;-69
2023/08/14 08:47:59;;;;;;;0.00;0.00;;;;;;;29.54;50.81;101565.00;5049800;28;20033;-68
2023/08/14 08:50:26;;;;;;;0.00;0.00;;;;;;;29.67;50.43;101568.66;5044454;28;20094;-69
2023/08/14 08:52:52;;;;;;;0.00;0.00;;;;;;;29.97;49.68;101568.31;5046750;28;20052;-69
2023/08/14 08:55:18;;;;;;;0.00;0.00;;;;;;;29.77;50.07;101560.81;5047346;28;20560;-68
2023/08/14 08:57:43;;;;;;;0.00;0.00;;;;;;;30.37;49.29;101568.66;5046949;28;20037;-69
2023/08/14 09:00:09;;;;;;;0.00;0.00;;;;;;;30.48;49.81;101575.41;5046574;28;20053;-68
2023/08/14 09:02:35;;;;;;;0.00;0.00;;;;;;;30.14;49.36;101570.94;5046915;28;20032;-69
2023/08/14 09:05:00;;;;;;;0.00;0.00;;;;;;;30.31;48.65;101561.69;5046608;28;20091;-68
2023/08/14 09:07:26;;;;;;;0.00;0.00;;;;;;;30.36;47.64;101552.34;5044781;28;20465;-69
2023/08/14 09:09:51;;;;;;;0.00;0.00;;;;;;;30.62;48.50;101559.28;5028922;28;20029;-70
2023/08/14 09:12:17;;;;;;;0.00;0.00;;;;;;;30.54;47.59;101548.25;5049000;28;20033;-69
2023/08/14 09:14:44;;;;;;;0.00;0.00;;;;;;;30.47;47.31;101554.34;5048725;28;20049;-68
2023/08/14 09:17:11;;;;;;;0.00;0.00;;;;;;;30.53;47.05;101553.00;5047087;28;20301;-68
2023/08/14 09:19:38;;;;;;;0.00;0.00;;;;;;;30.56;48.08;101551.50;5049615;28;20020;-69
2023/08/14 09:22:05;;;;;;;0.00;0.00;;;;;;;30.56;47.17;101557.06;5049025;28;20021;-68
2023/08/14 09:24:34;;;;;;;0.00;0.00;;;;;;;30.93;46.83;101553.25;5048268;28;20033;-69
2023/08/14 09:26:59;;;;;;;0.00;0.00;;;;;;;30.62;46.90;101548.19;5048680;28;20134;-67
2023/08/14 09:29:25;;;;;;;0.00;0.00;;;;;;;30.84;46.10;101542.22;5048903;28;20037;-68
2023/08/14 09:31:51;;;;;;;0.00;0.00;;;;;;;30.68;46.59;101541.25;5049047;28;20088;-69
2023/08/14 09:34:18;;;;;;;0.00;0.00;;;;;;;30.24;46.87;101540.03;5049042;28;20028;-69
2023/08/14 09:36:43;;;;;;;0.00;0.00;;;;;;;30.65;46.82;101544.72;5049227;28;20072;-68
2023/08/14 09:39:09;;;;;;;0.00;0.00;;;;;;;31.58;44.03;101536.38;5046019;28;20040;-68
2023/08/14 09:41:36;;;;;;;0.00;0.00;;;;;;;29.68;47.81;101537.84;5048182;28;20033;-68
2023/08/14 09:44:02;;;;;;;0.00;0.00;;;;;;;31.21;44.98;101531.16;5048247;28;20024;-67
2023/08/14 09:46:28;;;;;;;0.00;0.00;;;;;;;31.74;44.81;101525.34;5049015;28;20056;-67
2023/08/14 09:48:53;;;;;;;0.00;0.00;;;;;;;30.55;45.83;101522.94;5048505;28;20033;-68
2023/08/14 09:51:19;;;;;;;0.00;0.00;;;;;;;30.76;45.89;101520.13;5048421;28;20037;-67
2023/08/14 09:53:49;;;;;;;0.00;0.00;;;;;;;30.88;45.10;101515.41;5047825;28;20043;-68
2023/08/14 09:56:16;;;;;;;0.00;0.00;;;;;;;30.74;46.15;101514.88;5047849;28;20034;-69
2023/08/14 09:58:42;;;;;;;0.00;0.00;;;;;;;31.72;44.47;101514.59;5049171;28;20127;-69
2023/08/14 10:01:11;;;;;;;0.00;0.00;;;;;;;32.02;43.49;101515.06;5048268;28;20052;-68
2023/08/14 10:03:38;;;;;;;0.00;0.00;;;;;;;31.25;43.95;101505.13;5030289;28;20099;-68
2023/08/14 10:06:05;;;;;;;0.00;0.00;;;;;;;31.65;42.86;101502.41;5048202;28;20064;-70
2023/08/14 10:08:34;;;;;;;0.00;0.00;;;;;;;31.19;42.57;101512.06;5045894;28;20063;-69
2023/08/14 10:11:03;;;;;;;0.00;0.00;;;;;;;30.74;43.50;101503.78;5047973;28;20021;-68
2023/08/14 10:13:29;;;;;;;0.00;0.00;;;;;;;31.29;42.74;101500.50;5048631;28;20025;-70
2023/08/14 10:15:56;;;;;;;0.00;0.00;;;;;;;31.78;42.85;101509.59;5048216;28;20374;-69
2023/08/14 10:18:23;;;;;;;0.00;0.00;;;;;;;31.81;41.93;101504.13;5030529;28;20269;-69
2023/08/14 10:20:52;;;;;;;0.00;0.00;;;;;;;31.38;42.70;101506.75;5047573;28;20036;-70
2023/08/14 10:23:18;;;;;;;0.00;0.00;;;;;;;31.12;43.40;101512.66;5047495;28;20033;-69
2023/08/14 10:25:50;;;;;;;0.00;0.00;;;;;;;31.03;43.36;101505.59;5047762;28;20144;-68
2023/08/14 10:28:16;;;;;;;0.00;0.00;;;;;;;32.12;41.28;101497.09;5046593;28;20041;-68
2023/08/14 10:30:42;;;;;;;0.00;0.00;;;;;;;32.92;40.64;101497.69;5047849;28;20041;-69
2023/08/14 10:33:07;;;;;;;0.00;0.00;;;;;;;32.37;40.10;101498.59;5048730;28;20037;-68
2023/08/14 10:35:53;;;;;;;0.00;0.00;;;;;;;32.25;39.83;101493.91;5047564;28;20044;-69
2023/08/14 10:38:19;;;;;;;0.00;0.00;;;;;;;33.29;39.70;101502.63;5039870;28;20117;-69
2023/08/14 10:40:53;;;;;;;0.00;0.00;;;;;;;32.49;40.52;101496.56;5048309;28;20029;-68
2023/08/14 10:43:23;;;;;;;0.00;0.00;;;;;;;32.19;41.24;101494.50;5046700;28;20215;-68
2023/08/14 10:45:51;;;;;;;0.00;0.00;;;;;;;32.75;40.00;101494.09;5048170;28;20049;-69
2023/08/14 10:48:19;;;;;;;0.00;0.00;;;;;;;32.52;39.71;101487.50;5048183;28;20124;-68
2023/08/14 10:50:48;;;;;;;0.00;0.00;;;;;;;33.07;39.08;101491.31;5048017;28;20056;-70
2023/08/14 10:53:14;;;;;;;0.00;0.00;;;;;;;32.07;40.59;101489.00;5047354;28;20025;-69
2023/08/14 10:55:42;;;;;;;0.00;0.00;;;;;;;32.46;40.37;101482.56;5054532;28;20546;-69
2023/08/14 10:58:29;;;;;;;0.00;0.00;;;;;;;31.90;39.80;101487.31;5054170;28;20041;-69
2023/08/14 11:00:56;;;;;;;0.00;0.00;;;;;;;31.93;40.04;101481.06;5051614;28;20457;-69
2023/08/14 11:03:21;;;;;;;0.00;0.00;;;;;;;32.73;38.20;101471.34;5054336;28;20068;-69
2023/08/14 11:05:47;;;;;;;0.00;0.00;;;;;;;33.75;36.61;101475.00;5054302;28;20029;-69
2023/08/14 11:08:14;;;;;;;0.00;0.00;;;;;;;33.24;38.46;101458.28;5054289;28;20124;-70
2023/08/14 11:10:41;;;;;;;0.00;0.00;;;;;;;33.67;37.16;101457.31;5054553;28;20020;-68
2023/08/14 11:13:06;;;;;;;0.00;0.00;;;;;;;32.49;38.48;101452.03;5054442;28;20087;-69
2023/08/14 11:15:36;;;;;;;0.00;0.00;;;;;;;33.43;37.57;101452.78;5054368;28;20041;-70
2023/08/14 11:18:05;;;;;;;;;;;;;;;34.06;34.62;101461.72;5055055;28;20037;-69
2023/08/14 11:20:31;;;;;;;0.00;0.00;;;;;;;33.78;34.79;101463.09;5054101;28;20368;-70